Time;durP1;ratioP1;P1;durP2;ratioP2;P2;SDS_P1;SDS_P2;PMS_P1;PMS_P2;Temp;Humidity;BMP_temperature;BMP_pressure;BME280_temperature;BME280_humidity;BME280_pressure;Samples;Min_cycle;Max_cycle;Signal;HPM_P1;HPM_P2
2022/07/13 00:02:00;;;;;;;3.10;1.30;;;20.80;99.90;;;;;;5002110;28;20137;-75
2022/07/13 00:04:25;;;;;;;2.30;1.58;;;20.80;99.90;;;;;;5020151;28;20132;-75
2022/07/13 00:06:51;;;;;;;3.28;1.85;;;20.90;99.90;;;;;;5020417;28;20114;-75
2022/07/13 00:09:17;;;;;;;2.45;2.03;;;20.80;99.90;;;;;;5013375;28;20079;-75
2022/07/13 00:11:43;;;;;;;4.32;1.73;;;20.80;99.90;;;;;;5026908;28;20033;-74
2022/07/13 00:14:08;;;;;;;2.35;2.15;;;20.70;99.90;;;;;;5018124;28;20021;-74
2022/07/13 00:16:34;;;;;;;3.72;2.15;;;20.70;99.90;;;;;;5019703;28;20025;-74
2022/07/13 00:18:59;;;;;;;3.75;2.17;;;20.80;99.90;;;;;;5013320;28;20414;-74
2022/07/13 00:21:25;;;;;;;2.85;2.40;;;20.70;99.90;;;;;;5021260;28;20029;-74
2022/07/13 00:23:51;;;;;;;2.70;2.17;;;20.60;99.90;;;;;;5002871;28;20076;-74
2022/07/13 00:26:16;;;;;;;2.67;2.45;;;20.60;99.90;;;;;;5019485;28;20037;-74
2022/07/13 00:28:42;;;;;;;2.03;1.60;;;20.50;99.90;;;;;;5020530;28;20030;-74
2022/07/13 00:31:08;;;;;;;2.22;2.03;;;20.50;99.90;;;;;;5002567;28;20030;-75
2022/07/13 00:33:33;;;;;;;2.40;2.20;;;20.50;99.90;;;;;;5021185;28;20036;-74
2022/07/13 00:35:59;;;;;;;2.97;2.67;;;20.50;99.90;;;;;;5019211;28;20029;-74
2022/07/13 00:38:25;;;;;;;2.67;2.40;;;20.50;99.90;;;;;;5002657;28;20041;-74
2022/07/13 00:40:50;;;;;;;2.30;1.98;;;20.50;99.90;;;;;;5002170;28;20051;-74
2022/07/13 00:43:17;;;;;;;2.50;2.30;;;20.50;99.90;;;;;;5020488;28;20028;-75
2022/07/13 00:45:43;;;;;;;4.80;2.47;;;20.50;99.90;;;;;;5019224;28;20402;-74
2022/07/13 00:48:10;;;;;;;3.80;2.17;;;20.50;99.90;;;;;;5019570;28;20041;-75
2022/07/13 00:50:35;;;;;;;3.08;2.55;;;20.40;99.90;;;;;;5011944;28;20087;-75
2022/07/13 00:53:01;;;;;;;3.33;2.47;;;20.40;99.90;;;;;;5001449;28;20037;-75
2022/07/13 00:55:28;;;;;;;2.83;2.55;;;20.40;99.90;;;;;;5020535;28;20021;-75
2022/07/13 00:57:54;;;;;;;3.10;2.90;;;20.40;99.90;;;;;;5018328;28;20116;-75
2022/07/13 01:00:20;;;;;;;3.10;2.67;;;20.40;99.90;;;;;;5035154;28;20079;-75
2022/07/13 01:02:46;;;;;;;4.00;2.78;;;20.40;99.90;;;;;;5019258;28;20492;-75
2022/07/13 01:05:14;;;;;;;2.72;2.42;;;20.40;99.90;;;;;;5019238;28;20505;-75
2022/07/13 01:07:40;;;;;;;2.55;2.35;;;20.40;99.90;;;;;;5017391;28;20037;-75
2022/07/13 01:10:08;;;;;;;2.53;2.00;;;20.30;99.90;;;;;;5001385;28;20048;-75
2022/07/13 01:12:36;;;;;;;2.53;2.20;;;20.30;99.90;;;;;;5019274;28;20053;-76
2022/07/13 01:15:06;;;;;;;3.60;2.55;;;20.30;99.90;;;;;;5017805;28;20268;-74
2022/07/13 01:17:35;;;;;;;2.75;2.38;;;20.30;99.90;;;;;;5020352;28;20047;-75
2022/07/13 01:20:01;;;;;;;3.38;2.80;;;20.20;99.90;;;;;;5011489;28;20172;-75
2022/07/13 01:22:42;;;;;;;3.80;2.60;;;20.20;99.90;;;;;;5019359;28;20442;-75
2022/07/13 01:25:09;;;;;;;3.83;2.35;;;20.20;99.90;;;;;;5019397;28;20448;-75
2022/07/13 01:27:36;;;;;;;2.88;2.10;;;20.10;99.90;;;;;;5017229;28;20053;-75
2022/07/13 01:30:05;;;;;;;2.53;2.25;;;20.10;99.90;;;;;;5017042;28;20474;-76
2022/07/13 01:32:45;;;;;;;3.42;2.05;;;20.10;99.90;;;;;;5018578;28;20104;-75
2022/07/13 01:35:11;;;;;;;3.42;2.58;;;20.00;99.90;;;;;;5016695;28;20018;-75
2022/07/13 01:37:38;;;;;;;2.38;1.75;;;19.90;99.90;;;;;;5002997;28;20379;-74
2022/07/13 01:40:04;;;;;;;2.33;1.83;;;19.90;99.90;;;;;;5000756;28;20171;-75
2022/07/13 01:42:32;;;;;;;2.28;2.08;;;20.00;99.90;;;;;;5010801;28;20030;-75
2022/07/13 01:44:59;;;;;;;2.70;2.13;;;19.90;99.90;;;;;;5011353;28;20107;-75
2022/07/13 01:47:24;;;;;;;2.55;2.13;;;19.90;99.90;;;;;;5018143;28;20041;-75
2022/07/13 01:49:50;;;;;;;2.70;1.88;;;19.90;99.90;;;;;;5017248;28;20047;-75
2022/07/13 01:52:16;;;;;;;2.35;1.60;;;19.90;99.90;;;;;;5013336;28;20144;-75
2022/07/13 01:54:41;;;;;;;2.83;2.00;;;19.90;99.90;;;;;;5017269;28;20104;-75
2022/07/13 01:57:07;;;;;;;2.90;1.95;;;19.90;99.90;;;;;;5016786;28;20794;-75
2022/07/13 01:59:32;;;;;;;3.15;2.03;;;19.80;99.90;;;;;;5016964;28;20023;-75
2022/07/13 02:01:58;;;;;;;2.35;1.48;;;19.80;99.90;;;;;;5017023;28;20048;-75
2022/07/13 02:04:24;;;;;;;2.20;1.45;;;19.80;99.90;;;;;;5011578;28;20033;-75
2022/07/13 02:06:50;;;;;;;2.35;1.13;;;19.80;99.90;;;;;;5017718;28;20025;-74
2022/07/13 02:09:18;;;;;;;1.70;0.98;;;19.80;99.90;;;;;;5010421;28;20034;-75
2022/07/13 02:11:44;;;;;;;1.90;1.10;;;19.70;99.90;;;;;;5012210;28;20030;-76
2022/07/13 02:14:10;;;;;;;2.88;1.17;;;19.70;99.90;;;;;;5016094;28;20041;-75
2022/07/13 02:16:35;;;;;;;2.08;1.25;;;19.60;99.90;;;;;;5000947;28;20044;-75
2022/07/13 02:19:01;;;;;;;1.98;1.00;;;19.60;99.90;;;;;;4993778;28;20729;-76
2022/07/13 02:21:30;;;;;;;1.75;0.93;;;19.50;99.90;;;;;;5001169;28;20026;-75
2022/07/13 02:23:55;;;;;;;1.58;0.95;;;19.60;99.90;;;;;;5001465;28;20068;-75
2022/07/13 02:26:21;;;;;;;2.22;1.05;;;19.60;99.90;;;;;;5022474;28;20367;-75
2022/07/13 02:28:47;;;;;;;1.60;0.80;;;19.50;99.90;;;;;;5000684;28;20072;-75
2022/07/13 02:31:13;;;;;;;1.80;1.00;;;19.60;99.90;;;;;;5016138;28;20033;-74
2022/07/13 02:33:39;;;;;;;1.77;0.80;;;19.60;99.90;;;;;;5016652;28;20030;-74
2022/07/13 02:36:05;;;;;;;1.40;0.80;;;19.50;99.90;;;;;;5018267;28;20026;-74
2022/07/13 02:38:31;;;;;;;1.77;0.90;;;19.50;99.90;;;;;;5023185;28;20053;-74
2022/07/13 02:40:57;;;;;;;3.65;0.80;;;19.50;99.90;;;;;;5018036;28;20040;-74
2022/07/13 02:43:23;;;;;;;1.48;0.82;;;19.30;99.90;;;;;;4995622;28;20045;-74
2022/07/13 02:45:49;;;;;;;2.10;0.90;;;19.40;99.90;;;;;;5011311;28;20108;-75
2022/07/13 02:48:15;;;;;;;1.73;0.90;;;19.40;99.90;;;;;;5005746;28;20044;-75
2022/07/13 02:50:40;;;;;;;2.30;0.70;;;19.50;99.90;;;;;;5015417;28;20030;-74
2022/07/13 02:53:07;;;;;;;1.83;0.50;;;19.50;99.90;;;;;;4999729;28;20029;-74
2022/07/13 02:55:35;;;;;;;1.33;0.60;;;19.50;99.90;;;;;;5006970;28;20037;-75
2022/07/13 02:58:00;;;;;;;1.35;0.80;;;19.60;99.90;;;;;;5017283;28;20037;-75
2022/07/13 03:00:26;;;;;;;1.45;0.70;;;19.60;99.90;;;;;;5006266;28;20034;-75
2022/07/13 03:02:52;;;;;;;2.38;0.82;;;19.50;99.90;;;;;;5015843;28;22119;-74
2022/07/13 03:05:18;;;;;;;1.25;0.70;;;19.40;99.90;;;;;;5017920;28;20082;-74
2022/07/13 03:07:43;;;;;;;1.98;0.80;;;19.40;99.90;;;;;;4994161;28;20037;-75
2022/07/13 03:10:09;;;;;;;3.83;0.60;;;19.30;99.90;;;;;;5005738;28;20140;-74
2022/07/13 03:12:35;;;;;;;2.67;0.68;;;19.30;99.90;;;;;;5017174;28;20053;-75
2022/07/13 03:15:01;;;;;;;1.27;0.57;;;19.40;99.90;;;;;;5015483;28;20125;-74
2022/07/13 03:17:27;;;;;;;1.00;0.50;;;19.30;99.90;;;;;;5016922;28;20604;-74
2022/07/13 03:19:53;;;;;;;1.38;0.70;;;19.30;99.90;;;;;;5010055;28;20026;-74
2022/07/13 03:22:19;;;;;;;1.55;0.50;;;19.30;99.90;;;;;;4999648;28;20843;-74
2022/07/13 03:24:44;;;;;;;1.20;0.60;;;19.30;99.90;;;;;;5006427;28;20287;-74
2022/07/13 03:27:10;;;;;;;2.08;0.60;;;19.30;99.90;;;;;;5010364;28;20129;-74
2022/07/13 03:29:36;;;;;;;1.13;0.50;;;19.20;99.90;;;;;;5006175;28;20034;-74
2022/07/13 03:32:02;;;;;;;0.90;0.50;;;19.20;99.90;;;;;;5016207;28;20032;-76
2022/07/13 03:34:27;;;;;;;1.30;0.60;;;19.20;99.90;;;;;;4999790;28;20026;-74
2022/07/13 03:36:54;;;;;;;0.90;0.50;;;19.30;99.90;;;;;;5009279;28;20086;-75
2022/07/13 03:39:20;;;;;;;1.20;0.60;;;19.30;99.90;;;;;;4998026;28;20033;-76
2022/07/13 03:41:46;;;;;;;0.90;0.40;;;19.40;99.90;;;;;;5011442;28;20068;-75
2022/07/13 03:44:13;;;;;;;1.00;0.60;;;19.40;99.90;;;;;;5016298;28;20056;-75
2022/07/13 03:46:40;;;;;;;0.98;0.50;;;19.40;99.90;;;;;;5015475;28;20030;-75
2022/07/13 03:49:06;;;;;;;1.30;0.60;;;19.50;99.90;;;;;;4998672;28;20025;-76
2022/07/13 03:51:32;;;;;;;1.35;0.60;;;19.50;99.90;;;;;;5016533;28;20037;-75
2022/07/13 03:53:58;;;;;;;1.33;0.60;;;19.60;99.90;;;;;;5016238;28;20037;-74
2022/07/13 03:56:24;;;;;;;1.63;0.68;;;19.60;99.90;;;;;;4998867;28;20086;-75
2022/07/13 03:58:50;;;;;;;1.95;0.80;;;19.60;99.90;;;;;;5016724;28;20100;-75
2022/07/13 04:01:18;;;;;;;1.70;0.65;;;19.60;99.90;;;;;;4999004;28;20030;-75
2022/07/13 04:03:44;;;;;;;1.70;0.90;;;19.70;99.90;;;;;;5029678;28;20127;-75
2022/07/13 04:06:10;;;;;;;1.98;0.73;;;19.70;99.90;;;;;;5003557;28;20029;-75
2022/07/13 04:08:36;;;;;;;1.85;0.73;;;19.80;99.90;;;;;;5003482;28;20512;-75
2022/07/13 04:11:02;;;;;;;1.30;0.70;;;19.80;99.90;;;;;;5019740;28;20421;-75
2022/07/13 04:13:27;;;;;;;2.95;1.00;;;19.80;99.90;;;;;;5003103;28;20490;-75
2022/07/13 04:15:53;;;;;;;2.50;0.90;;;19.90;99.90;;;;;;4997800;28;20108;-75
2022/07/13 04:18:20;;;;;;;1.85;1.00;;;19.90;99.90;;;;;;5019439;28;20037;-75
2022/07/13 04:20:46;;;;;;;1.65;0.82;;;19.90;99.90;;;;;;5001611;28;20611;-74
2022/07/13 04:23:11;;;;;;;2.40;1.23;;;20.00;99.90;;;;;;5018044;28;20394;-75
2022/07/13 04:25:37;;;;;;;2.55;1.00;;;20.00;99.90;;;;;;5008743;28;20049;-75
2022/07/13 04:28:03;;;;;;;1.95;1.08;;;20.00;99.90;;;;;;5018497;28;20056;-74
2022/07/13 04:30:29;;;;;;;1.85;0.60;;;20.10;99.90;;;;;;5002574;28;20434;-74
2022/07/13 04:32:57;;;;;;;2.78;0.80;;;20.10;99.90;;;;;;5000121;28;20120;-75
2022/07/13 04:35:23;;;;;;;3.63;1.08;;;20.10;99.90;;;;;;5009621;28;20567;-74
2022/07/13 04:37:49;;;;;;;3.00;1.10;;;20.10;99.90;;;;;;5018467;28;20090;-74
2022/07/13 04:40:15;;;;;;;1.90;1.05;;;20.10;99.90;;;;;;5003407;28;20112;-74
2022/07/13 04:42:41;;;;;;;2.95;1.00;;;20.10;99.90;;;;;;5018137;28;20026;-75
2022/07/13 04:45:09;;;;;;;1.55;0.70;;;20.10;99.90;;;;;;5007957;28;20034;-74
2022/07/13 04:47:37;;;;;;;1.42;0.68;;;20.10;99.90;;;;;;5002526;28;20547;-75
2022/07/13 04:50:03;;;;;;;2.08;0.77;;;20.10;99.90;;;;;;5001972;28;20037;-74
2022/07/13 04:52:29;;;;;;;2.05;0.65;;;20.20;99.90;;;;;;5019949;28;20040;-75
2022/07/13 04:54:55;;;;;;;2.47;0.80;;;20.20;99.90;;;;;;5018215;28;20037;-74
2022/07/13 04:57:21;;;;;;;1.70;0.70;;;20.20;99.90;;;;;;5036356;28;20037;-74
2022/07/13 04:59:46;;;;;;;1.60;0.70;;;20.20;99.90;;;;;;5019092;28;20033;-74
2022/07/13 05:02:12;;;;;;;3.67;1.00;;;20.30;99.90;;;;;;5017623;28;20078;-76
2022/07/13 05:04:38;;;;;;;1.67;0.90;;;20.30;99.90;;;;;;5001220;28;20181;-75
2022/07/13 05:07:03;;;;;;;1.30;0.70;;;20.40;99.90;;;;;;5019470;28;20037;-75
2022/07/13 05:09:31;;;;;;;3.05;0.75;;;20.50;99.90;;;;;;5002718;28;20033;-75
2022/07/13 05:11:56;;;;;;;2.40;0.70;;;20.50;99.90;;;;;;5012700;28;20128;-75
2022/07/13 05:14:22;;;;;;;2.63;0.73;;;20.70;99.90;;;;;;5000915;28;20082;-75
2022/07/13 05:16:48;;;;;;;1.73;0.70;;;20.80;99.90;;;;;;5018540;28;20029;-75
2022/07/13 05:19:14;;;;;;;1.40;0.70;;;20.90;99.90;;;;;;4999443;28;20065;-74
2022/07/13 05:21:41;;;;;;;1.42;0.50;;;20.90;99.90;;;;;;5018157;28;20654;-75
2022/07/13 05:24:08;;;;;;;2.72;0.52;;;20.90;99.90;;;;;;5017329;28;20061;-75
2022/07/13 05:26:34;;;;;;;2.53;0.80;;;20.90;99.90;;;;;;5018467;28;20168;-75
2022/07/13 05:29:02;;;;;;;1.30;0.60;;;21.00;99.90;;;;;;5012005;28;20033;-75
2022/07/13 05:31:29;;;;;;;2.55;0.60;;;21.00;99.90;;;;;;5001894;28;20018;-74
2022/07/13 05:33:55;;;;;;;1.50;0.60;;;21.00;99.90;;;;;;5007417;28;20025;-75
2022/07/13 05:36:27;;;;;;;1.83;0.60;;;21.10;99.90;;;;;;5003076;28;20057;-74
2022/07/13 05:38:53;;;;;;;1.83;0.70;;;21.20;99.90;;;;;;4991406;28;20156;-75
2022/07/13 05:41:19;;;;;;;2.42;0.60;;;21.30;99.90;;;;;;4985867;28;20977;-75
2022/07/13 05:43:46;;;;;;;2.47;0.60;;;21.30;99.90;;;;;;4995778;28;20087;-76
2022/07/13 05:46:13;;;;;;;1.45;0.77;;;21.40;99.90;;;;;;5014123;28;20500;-74
2022/07/13 05:48:39;;;;;;;1.77;0.70;;;21.50;99.90;;;;;;5001009;28;20117;-75
2022/07/13 05:51:05;;;;;;;5.13;0.75;;;21.60;99.90;;;;;;5018102;28;20028;-75
2022/07/13 05:53:32;;;;;;;10.77;1.15;;;21.60;99.90;;;;;;5016232;28;20032;-75
2022/07/13 05:55:58;;;;;;;2.63;0.88;;;21.80;99.90;;;;;;5016328;28;20017;-75
2022/07/13 05:58:23;;;;;;;2.40;0.75;;;21.70;99.90;;;;;;4994843;28;20026;-75
2022/07/13 06:00:49;;;;;;;1.70;0.80;;;21.90;99.90;;;;;;5018119;28;20484;-75
2022/07/13 06:03:15;;;;;;;2.33;1.20;;;21.90;99.90;;;;;;5016576;28;20056;-75
2022/07/13 06:05:40;;;;;;;2.13;0.80;;;21.90;99.90;;;;;;5016582;28;20406;-75
2022/07/13 06:08:06;;;;;;;2.38;0.85;;;22.00;99.90;;;;;;4999627;28;20064;-75
2022/07/13 06:10:32;;;;;;;2.90;0.77;;;22.00;99.90;;;;;;5011637;28;20072;-75
2022/07/13 06:12:57;;;;;;;2.38;0.90;;;22.00;99.90;;;;;;5016606;28;20064;-75
2022/07/13 06:15:23;;;;;;;1.55;0.80;;;22.20;99.90;;;;;;5022752;28;20033;-76
2022/07/13 06:17:48;;;;;;;2.38;1.02;;;22.20;99.90;;;;;;5016116;28;20120;-76
2022/07/13 06:20:14;;;;;;;1.83;1.00;;;22.30;99.90;;;;;;5018375;28;20061;-75
2022/07/13 06:22:40;;;;;;;3.50;1.30;;;22.30;99.90;;;;;;5015289;28;20087;-75
2022/07/13 06:25:06;;;;;;;1.98;1.45;;;22.30;99.90;;;;;;5016415;28;20026;-75
2022/07/13 06:27:31;;;;;;;2.75;0.93;;;22.40;99.90;;;;;;5012416;28;20037;-75
2022/07/13 06:29:57;;;;;;;1.80;0.90;;;22.40;99.90;;;;;;5009325;28;20038;-75
2022/07/13 06:32:23;;;;;;;2.20;1.08;;;22.50;99.90;;;;;;5016292;28;20199;-75
2022/07/13 06:34:48;;;;;;;2.95;0.98;;;22.60;99.90;;;;;;5015256;28;21827;-75
2022/07/13 06:37:14;;;;;;;2.30;1.05;;;22.70;99.90;;;;;;5014335;28;20036;-75
2022/07/13 06:39:39;;;;;;;1.50;0.70;;;22.70;99.90;;;;;;5015301;28;20062;-76
2022/07/13 06:42:05;;;;;;;2.20;1.00;;;22.80;99.90;;;;;;5014776;28;20079;-75
2022/07/13 06:44:31;;;;;;;1.40;0.80;;;22.90;99.90;;;;;;5016484;28;20509;-75
2022/07/13 06:46:59;;;;;;;2.25;0.80;;;23.00;99.90;;;;;;5021676;28;20155;-75
2022/07/13 06:49:26;;;;;;;2.85;0.90;;;23.10;99.90;;;;;;5016023;28;20032;-75
2022/07/13 06:51:54;;;;;;;2.65;1.00;;;23.20;99.90;;;;;;4990109;28;20363;-74
2022/07/13 06:54:20;;;;;;;2.45;0.90;;;23.30;99.90;;;;;;5000408;28;20033;-76
2022/07/13 06:56:46;;;;;;;2.53;1.17;;;23.50;99.90;;;;;;5013517;28;20065;-74
2022/07/13 06:59:11;;;;;;;1.90;1.20;;;23.80;99.90;;;;;;5006753;28;20590;-75
2022/07/13 07:01:37;;;;;;;2.63;1.40;;;23.80;99.90;;;;;;5006990;28;20037;-75
2022/07/13 07:04:03;;;;;;;3.97;1.33;;;23.70;99.90;;;;;;5010522;28;20715;-75
2022/07/13 07:06:28;;;;;;;4.50;1.50;;;23.70;99.90;;;;;;5014173;28;20440;-75
2022/07/13 07:08:54;;;;;;;2.00;0.80;;;23.80;99.90;;;;;;4997249;28;20112;-74
2022/07/13 07:11:20;;;;;;;6.05;2.97;;;23.90;99.90;;;;;;5014627;28;20432;-75
2022/07/13 07:13:45;;;;;;;2.30;1.42;;;23.80;99.90;;;;;;5013159;28;20067;-77
2022/07/13 07:16:11;;;;;;;2.92;1.50;;;24.20;99.90;;;;;;5013520;28;20032;-75
2022/07/13 07:18:37;;;;;;;4.47;3.13;;;24.30;99.90;;;;;;5013446;28;20189;-76
2022/07/13 07:21:02;;;;;;;5.10;3.47;;;24.00;99.90;;;;;;5000116;28;20632;-76
2022/07/13 07:23:28;;;;;;;8.85;4.13;;;23.80;99.90;;;;;;5014577;28;22023;-75
2022/07/13 07:25:54;;;;;;;5.10;2.92;;;24.00;99.90;;;;;;5013915;28;20104;-75
2022/07/13 07:28:19;;;;;;;4.28;1.90;;;24.50;99.90;;;;;;5014758;28;20727;-75
2022/07/13 07:30:45;;;;;;;4.43;2.30;;;25.10;99.90;;;;;;5014932;28;20044;-75
2022/07/13 07:33:10;;;;;;;4.88;2.90;;;24.90;99.90;;;;;;5015322;28;20045;-76
2022/07/13 07:35:37;;;;;;;3.85;1.75;;;24.50;99.90;;;;;;5020544;28;20045;-75
2022/07/13 07:38:02;;;;;;;3.28;2.05;;;24.50;99.90;;;;;;5015927;28;20057;-75
2022/07/13 07:40:28;;;;;;;3.53;1.50;;;24.70;99.90;;;;;;5019298;28;20025;-75
2022/07/13 07:42:54;;;;;;;5.65;1.88;;;25.30;99.90;;;;;;5019038;28;20051;-76
2022/07/13 07:45:19;;;;;;;3.63;2.47;;;25.10;99.90;;;;;;5018120;28;20033;-76
2022/07/13 07:47:45;;;;;;;6.18;2.60;;;25.00;99.90;;;;;;5017374;28;20045;-75
2022/07/13 07:50:11;;;;;;;2.85;1.75;;;24.80;99.90;;;;;;5007758;28;20029;-76
2022/07/13 07:52:37;;;;;;;4.15;2.10;;;25.00;99.90;;;;;;4992180;28;20262;-76
2022/07/13 07:55:03;;;;;;;5.05;2.30;;;25.50;99.90;;;;;;5017713;28;20045;-77
2022/07/13 07:57:28;;;;;;;6.35;2.38;;;25.80;99.90;;;;;;5017928;28;20029;-75
2022/07/13 07:59:54;;;;;;;5.78;2.22;;;25.90;99.90;;;;;;5018872;28;20030;-75
2022/07/13 08:02:20;;;;;;;5.00;3.20;;;25.60;99.90;;;;;;5017626;28;20044;-76
2022/07/13 08:04:45;;;;;;;3.97;2.55;;;25.00;99.90;;;;;;5018453;28;20029;-76
2022/07/13 08:07:11;;;;;;;4.18;2.95;;;24.80;99.90;;;;;;5016641;28;20045;-76
2022/07/13 08:09:37;;;;;;;4.75;2.20;;;24.80;99.90;;;;;;5001389;28;20462;-76
2022/07/13 08:12:04;;;;;;;4.78;2.58;;;24.70;99.90;;;;;;5018845;28;20045;-76
2022/07/13 08:14:30;;;;;;;4.32;2.58;;;24.90;99.90;;;;;;5018904;28;20096;-76
2022/07/13 08:16:57;;;;;;;5.60;2.08;;;25.80;99.90;;;;;;5021306;28;20041;-76
2022/07/13 08:19:24;;;;;;;4.60;2.20;;;26.40;99.90;;;;;;5006941;28;20041;-78
2022/07/13 08:21:50;;;;;;;6.47;2.95;;;26.10;99.90;;;;;;5016101;28;20044;-75
2022/07/13 08:24:15;;;;;;;4.03;2.22;;;25.50;99.90;;;;;;5019721;28;20037;-77
2022/07/13 08:26:41;;;;;;;3.80;2.08;;;25.40;99.90;;;;;;5016596;28;20021;-76
2022/07/13 08:29:07;;;;;;;5.45;2.40;;;25.30;99.90;;;;;;5018044;28;20616;-75
2022/07/13 08:31:33;;;;;;;5.47;2.30;;;25.10;99.90;;;;;;5017903;28;20055;-76
2022/07/13 08:39:47;;;;;;;6.05;2.35;;;25.30;99.90;;;;;;4947004;28;20050;-76
2022/07/13 08:42:13;;;;;;;2.77;1.77;;;25.40;99.90;;;;;;4954127;28;20034;-77
2022/07/13 08:44:39;;;;;;;5.13;1.42;;;25.60;99.90;;;;;;4970812;28;20305;-76
2022/07/13 08:47:09;;;;;;;5.53;2.38;;;25.90;99.90;;;;;;4971717;28;20030;-76
2022/07/13 08:49:35;;;;;;;4.60;2.20;;;25.80;99.90;;;;;;4953494;28;20039;-75
2022/07/13 08:52:01;;;;;;;4.65;2.05;;;25.70;99.90;;;;;;4964108;28;20558;-76
2022/07/13 08:54:29;;;;;;;5.05;2.22;;;26.00;99.90;;;;;;4970041;28;20034;-76
2022/07/13 08:56:55;;;;;;;5.47;1.90;;;25.90;99.90;;;;;;4965090;28;20530;-75
2022/07/13 08:59:21;;;;;;;3.28;1.17;;;25.90;99.90;;;;;;4970336;28;20085;-76
2022/07/13 09:01:49;;;;;;;4.38;1.67;;;26.00;99.90;;;;;;4955560;28;20507;-75
2022/07/13 09:04:14;;;;;;;3.03;1.35;;;26.00;99.90;;;;;;4969985;28;20050;-76
2022/07/13 09:06:47;;;;;;;2.83;1.33;;;25.90;99.90;;;;;;4968461;28;20034;-77
2022/07/13 09:09:33;;;;;;;5.38;1.60;;;26.40;99.90;;;;;;4954041;28;20585;-76
2022/07/13 09:12:19;;;;;;;4.80;2.33;;;26.10;99.90;;;;;;5004186;28;20048;-76
2022/07/13 09:14:53;;;;;;;4.72;1.52;;;26.10;99.90;;;;;;5015146;28;20073;-76
2022/07/13 09:17:35;;;;;;;4.07;1.58;;;26.00;99.90;;;;;;5018023;28;20150;-77
2022/07/13 09:20:05;;;;;;;3.97;1.38;;;26.20;99.90;;;;;;5015633;28;20654;-76
2022/07/13 09:22:31;;;;;;;3.40;1.98;;;26.40;99.90;;;;;;5018564;28;20034;-76
2022/07/13 09:24:57;;;;;;;2.60;1.17;;;26.10;99.90;;;;;;5015102;28;20366;-76
2022/07/13 09:27:23;;;;;;;4.10;1.40;;;26.20;99.90;;;;;;5017243;28;20112;-76
2022/07/13 09:29:49;;;;;;;4.22;1.52;;;26.30;99.90;;;;;;5018360;28;20357;-75
2022/07/13 09:32:14;;;;;;;3.40;1.30;;;26.10;99.90;;;;;;5017106;28;20504;-76
2022/07/13 09:34:57;;;;;;;3.63;1.70;;;26.10;99.90;;;;;;5019725;28;20495;-76
2022/07/13 09:37:27;;;;;;;2.67;1.25;;;26.20;99.90;;;;;;5016545;28;20043;-76
2022/07/13 09:40:11;;;;;;;5.93;1.67;;;26.30;99.90;;;;;;4998495;28;20057;-76
2022/07/13 09:42:42;;;;;;;3.03;1.55;;;26.10;99.90;;;;;;5017782;28;20033;-76
2022/07/13 09:47:54;;;;;;;2.65;1.30;;;26.60;99.90;;;;;;5026762;28;20057;-76
2022/07/13 09:50:41;;;;;;;2.28;1.00;;;27.10;99.90;;;;;;5017264;28;20064;-77
2022/07/13 09:53:27;;;;;;;2.60;1.45;;;27.40;99.90;;;;;;5017971;28;20068;-76
2022/07/13 09:55:54;;;;;;;4.28;1.27;;;27.30;99.90;;;;;;5015854;28;20256;-76
2022/07/13 09:58:31;;;;;;;2.95;1.35;;;27.50;99.90;;;;;;5016557;28;20063;-76
2022/07/13 10:00:58;;;;;;;4.18;1.85;;;27.40;99.90;;;;;;5014971;28;20041;-77
2022/07/13 10:03:27;;;;;;;3.50;1.88;;;27.50;99.90;;;;;;5017287;28;20037;-76
2022/07/13 10:05:54;;;;;;;2.90;1.10;;;27.50;99.90;;;;;;5033936;28;20048;-76
2022/07/13 10:08:20;;;;;;;3.80;1.10;;;27.50;99.90;;;;;;5011518;28;20071;-76
2022/07/13 10:10:50;;;;;;;2.67;1.27;;;27.50;99.90;;;;;;5016628;28;20442;-75
2022/07/13 10:13:17;;;;;;;2.60;1.10;;;27.80;99.90;;;;;;5018374;28;20667;-76
2022/07/13 10:15:44;;;;;;;2.70;0.73;;;28.20;99.90;;;;;;5016527;28;20431;-78
2022/07/13 10:18:16;;;;;;;2.75;0.93;;;28.00;99.90;;;;;;5015727;28;20486;-76
2022/07/13 10:20:50;;;;;;;1.83;0.70;;;28.20;99.90;;;;;;5033005;28;20465;-76
2022/07/13 10:23:37;;;;;;;4.10;0.85;;;28.00;99.90;;;;;;5017393;28;20036;-76
2022/07/13 10:26:03;;;;;;;2.22;0.80;;;27.70;99.90;;;;;;5016493;28;20511;-76
2022/07/13 10:28:29;;;;;;;3.85;1.13;;;28.30;99.90;;;;;;5017144;28;20485;-75
2022/07/13 10:30:55;;;;;;;5.07;0.80;;;28.40;99.90;;;;;;5014616;28;20029;-76
2022/07/13 10:33:31;;;;;;;3.42;1.30;;;28.90;99.90;;;;;;5015509;28;20083;-76
2022/07/13 10:35:58;;;;;;;3.00;0.90;;;27.90;99.90;;;;;;5015009;28;20033;-76
2022/07/13 10:38:29;;;;;;;2.53;0.90;;;28.20;99.90;;;;;;5016123;28;20460;-76
2022/07/13 10:41:17;;;;;;;3.05;1.58;;;29.00;99.90;;;;;;4996521;28;20059;-77
2022/07/13 10:43:52;;;;;;;2.88;1.50;;;28.40;99.90;;;;;;5014248;28;20025;-76
2022/07/13 10:46:48;;;;;;;2.47;0.88;;;28.20;99.90;;;;;;5015325;28;20159;-76
2022/07/13 10:49:35;;;;;;;3.38;0.80;;;28.70;99.90;;;;;;5008460;28;20786;-76
2022/07/13 10:52:25;;;;;;;2.35;0.60;;;28.40;99.90;;;;;;5015912;28;20060;-76
2022/07/13 10:55:22;;;;;;;3.55;0.68;;;28.70;99.90;;;;;;5006307;28;20493;-76
2022/07/13 10:57:48;;;;;;;2.65;0.70;;;28.40;99.90;;;;;;5014744;28;20049;-76
2022/07/13 11:00:19;;;;;;;2.53;0.70;;;28.50;99.90;;;;;;5014595;28;20040;-76
2022/07/13 11:02:51;;;;;;;1.35;0.50;;;29.00;99.90;;;;;;5014302;28;20517;-76
2022/07/13 11:05:19;;;;;;;2.45;0.60;;;28.50;99.90;;;;;;5014709;28;20486;-76
2022/07/13 11:07:48;;;;;;;1.10;0.50;;;28.60;99.90;;;;;;5012665;28;20037;-76
2022/07/13 11:10:18;;;;;;;1.00;0.40;;;29.00;99.90;;;;;;5014482;28;20382;-76
2022/07/13 11:13:02;;;;;;;1.40;0.50;;;29.30;99.90;;;;;;5008466;28;20075;-75
2022/07/13 11:15:50;;;;;;;1.92;0.60;;;29.90;99.90;;;;;;5016299;28;20088;-77
2022/07/13 11:18:21;;;;;;;1.92;0.60;;;29.40;99.90;;;;;;5016322;28;20073;-76
2022/07/13 11:21:02;;;;;;;1.42;0.50;;;28.80;99.90;;;;;;5016025;28;20386;-79
2022/07/13 11:26:36;;;;;;;2.47;0.60;;;28.50;99.90;;;;;;5014535;28;20047;-76
2022/07/13 11:29:24;;;;;;;2.15;0.90;;;28.70;99.90;;;;;;5013913;28;20514;-76
2022/07/13 11:32:00;;;;;;;2.50;0.60;;;28.70;99.90;;;;;;5013857;28;20046;-77
2022/07/13 11:34:27;;;;;;;1.33;0.50;;;28.40;99.90;;;;;;5015898;28;20640;-77
2022/07/13 11:36:53;;;;;;;2.00;0.68;;;28.40;99.90;;;;;;5014938;28;20021;-76
2022/07/13 11:39:29;;;;;;;3.35;0.60;;;28.40;99.90;;;;;;5015703;28;20132;-78
2022/07/13 11:41:56;;;;;;;2.88;0.70;;;28.60;99.90;;;;;;4994760;28;20045;-76
2022/07/13 11:44:25;;;;;;;2.67;0.60;;;28.70;99.90;;;;;;5013927;28;20040;-77
2022/07/13 11:46:55;;;;;;;2.42;0.60;;;28.50;99.90;;;;;;5016024;28;20029;-76
2022/07/13 11:49:21;;;;;;;5.43;0.60;;;28.60;99.90;;;;;;5017022;28;20037;-76
2022/07/13 11:51:48;;;;;;;1.70;0.50;;;29.10;99.90;;;;;;5016280;28;20156;-76
2022/07/13 11:54:16;;;;;;;2.88;0.50;;;28.80;99.90;;;;;;5008694;28;20419;-76
2022/07/13 11:56:52;;;;;;;1.30;0.57;;;29.00;99.90;;;;;;5013894;28;20026;-76
2022/07/13 11:59:42;;;;;;;2.03;0.43;;;28.60;99.90;;;;;;5013400;28;20033;-76
2022/07/13 12:02:09;;;;;;;3.00;0.70;;;28.40;99.90;;;;;;5012078;28;20047;-77
2022/07/13 12:04:42;;;;;;;1.42;0.50;;;28.20;99.90;;;;;;5012646;28;20030;-76
2022/07/13 12:07:16;;;;;;;1.80;0.50;;;28.10;99.90;;;;;;5013260;28;20081;-77
2022/07/13 12:09:58;;;;;;;2.15;0.60;;;28.10;99.90;;;;;;5015321;28;20021;-77
2022/07/13 12:12:37;;;;;;;3.15;0.70;;;28.20;99.90;;;;;;5014009;28;20621;-75
2022/07/13 12:15:05;;;;;;;1.63;0.60;;;28.30;99.90;;;;;;5016117;28;20206;-76
2022/07/13 12:17:42;;;;;;;1.73;0.70;;;28.50;99.90;;;;;;5006253;28;20034;-76
2022/07/13 12:20:19;;;;;;;2.15;0.60;;;28.80;99.90;;;;;;5009466;28;20045;-77
2022/07/13 12:22:56;;;;;;;1.98;0.50;;;28.70;99.90;;;;;;5015294;28;20543;-77
2022/07/13 12:25:39;;;;;;;3.35;0.65;;;29.10;99.90;;;;;;5018835;28;20488;-76
2022/07/13 12:28:08;;;;;;;3.30;0.70;;;28.30;99.90;;;;;;5018056;28;20342;-76
2022/07/13 12:30:37;;;;;;;1.65;0.50;;;28.20;99.90;;;;;;5029034;28;21948;-76
2022/07/13 12:33:11;;;;;;;2.13;0.40;;;28.40;99.90;;;;;;5013568;28;20044;-76
2022/07/13 12:35:40;;;;;;;1.00;0.40;;;28.30;99.90;;;;;;5016574;28;20358;-76
2022/07/13 12:38:11;;;;;;;;;;;28.60;99.90;;;;;;5005131;28;20083;-75
2022/07/13 12:40:41;;;;;;;0.38;0.30;;;28.40;99.90;;;;;;5016187;28;19963;-78
2022/07/13 12:43:21;;;;;;;0.95;0.40;;;27.90;99.90;;;;;;4997119;28;20056;-76
2022/07/13 12:45:55;;;;;;;0.80;0.30;;;28.20;99.90;;;;;;5010249;28;20029;-77
2022/07/13 12:48:25;;;;;;;1.02;0.40;;;28.50;99.90;;;;;;5017389;28;20427;-76
2022/07/13 12:50:58;;;;;;;1.58;0.47;;;28.40;99.90;;;;;;5012754;28;20048;-75
2022/07/13 12:53:45;;;;;;;0.93;0.30;;;28.60;99.90;;;;;;5016676;28;20056;-75
2022/07/13 12:56:11;;;;;;;0.63;0.20;;;29.20;99.90;;;;;;5006524;28;20037;-76
2022/07/13 12:58:47;;;;;;;0.82;0.20;;;29.40;99.90;;;;;;5017678;28;20075;-74
2022/07/13 13:01:36;;;;;;;1.23;0.30;;;29.30;99.90;;;;;;5017553;28;20037;-76
2022/07/13 13:04:02;;;;;;;;;;;29.10;99.90;;;;;;5017074;28;20037;-75
2022/07/13 13:06:29;;;;;;;1.27;0.30;;;29.40;99.90;;;;;;5017547;28;19917;-76